createdAt,value
2016-09-28T00:00:35.154Z,10.6
2016-09-28T00:01:34.807Z,10.56
2016-09-28T00:02:35.081Z,10.55
2016-09-28T00:03:35.042Z,10.56
2016-09-28T00:04:35.003Z,10.6
2016-09-28T00:05:34.971Z,10.56
2016-09-28T00:06:34.933Z,10.52
2016-09-28T00:07:34.594Z,10.6
2016-09-28T00:08:34.563Z,10.56
2016-09-28T00:09:34.218Z,10.48
2016-09-28T00:10:34.788Z,10.59
2016-09-28T00:11:34.756Z,10.51
2016-09-28T00:12:34.421Z,10.51
2016-09-28T00:13:34.380Z,10.55
2016-09-28T00:14:34.648Z,10.51
2016-09-28T00:15:34.614Z,10.52
2016-09-28T00:16:34.272Z,10.51
2016-09-28T00:17:34.541Z,10.52
2016-09-28T00:18:34.502Z,10.52
2016-09-28T00:19:34.165Z,10.48
2016-09-28T00:20:34.432Z,10.45
2016-09-28T00:21:34.397Z,10.48
2016-09-28T00:22:34.056Z,10.51
2016-09-28T00:23:34.323Z,10.47
2016-09-28T00:24:33.988Z,10.53
2016-09-28T00:25:34.247Z,10.53
2016-09-28T00:26:34.218Z,10.44
2016-09-28T00:27:33.883Z,10.42
2016-09-28T00:28:34.139Z,10.47
2016-09-28T00:29:34.126Z,10.45
2016-09-28T00:30:33.779Z,10.4
2016-09-28T00:31:33.731Z,10.41
2016-09-28T00:32:34.001Z,10.32
2016-09-28T00:33:33.657Z,10.3
2016-09-28T00:34:33.627Z,10.3
2016-09-28T00:35:33.899Z,10.29
2016-09-28T00:36:33.855Z,10.29
2016-09-28T00:37:33.517Z,10.26
2016-09-28T00:38:33.781Z,10.32
2016-09-28T00:39:33.752Z,10.29
2016-09-28T00:40:33.721Z,10.32
2016-09-28T00:41:33.371Z,10.3
2016-09-28T00:42:33.641Z,10.27
2016-09-28T00:43:33.606Z,10.25
2016-09-28T00:44:32.963Z,10.27
2016-09-28T00:45:32.930Z,10.26
2016-09-28T00:46:33.497Z,10.23
2016-09-28T00:47:33.162Z,10.25
2016-09-28T00:48:33.422Z,10.17
2016-09-28T00:49:33.084Z,10.2
2016-09-28T00:50:33.349Z,10.18
2016-09-28T00:51:33.327Z,10.14
2016-09-28T00:52:33.276Z,10.22
2016-09-28T00:53:33.244Z,10.27
2016-09-28T00:54:32.911Z,10.15
2016-09-28T00:55:33.173Z,10.25
2016-09-28T00:56:32.834Z,10.27
2016-09-28T00:57:33.098Z,10.23
2016-09-28T00:58:33.078Z,10.23
2016-09-28T00:59:33.024Z,10.14
2016-09-28T01:00:32.989Z,10.15
2016-09-28T01:01:32.953Z,10.15
2016-09-28T01:02:32.918Z,10.18
2016-09-28T01:03:32.275Z,10.15
2016-09-28T01:04:32.845Z,10.12
2016-09-28T01:05:32.809Z,10.12
2016-09-28T01:06:32.776Z,10.2
2016-09-28T01:07:32.435Z,10.2
2016-09-28T01:08:32.701Z,10.18
2016-09-28T01:09:32.668Z,10.15
2016-09-28T01:10:32.621Z,10.17
2016-09-28T01:11:32.592Z,10.14
2016-09-28T01:12:32.252Z,10.18
2016-09-28T01:13:32.215Z,10.12
2016-09-28T01:14:32.481Z,10.25
2016-09-28T01:15:32.445Z,10.18
2016-09-28T01:16:32.134Z,10.14
2016-09-28T01:17:31.769Z,10.25
2016-09-28T01:18:32.336Z,10.2
2016-09-28T01:19:32.304Z,10.18
2016-09-28T01:20:32.270Z,10.18
2016-09-28T01:21:32.226Z,10.07
2016-09-28T01:22:31.895Z,10.05
2016-09-28T01:23:31.859Z,10.11
2016-09-28T01:24:32.119Z,10.07
2016-09-28T01:25:32.089Z,10.04
2016-09-28T01:26:31.743Z,10.05
2016-09-28T01:27:32.011Z,10.12
2016-09-28T01:28:31.980Z,10.05
2016-09-28T01:29:31.938Z,10.09
2016-09-28T01:30:31.906Z,10.05
2016-09-28T01:31:31.865Z,9.99
2016-09-28T01:32:31.831Z,10.02
2016-09-28T01:33:31.797Z,10.02
2016-09-28T01:34:31.755Z,10.02
2016-09-28T01:35:31.718Z,10.05
2016-09-28T01:36:31.688Z,10.07
2016-09-28T01:37:31.650Z,10.04
2016-09-28T01:38:31.314Z,9.94
2016-09-28T01:39:31.577Z,10.04
2016-09-28T01:40:31.545Z,9.99
2016-09-28T01:41:31.511Z,9.91
2016-09-28T01:42:31.162Z,9.87
2016-09-28T01:43:31.135Z,9.87
2016-09-28T01:44:31.396Z,9.9
2016-09-28T01:45:31.354Z,9.99
2016-09-28T01:46:31.322Z,9.94
2016-09-28T01:47:30.685Z,9.97
2016-09-28T01:48:31.255Z,9.91
2016-09-28T01:49:31.212Z,9.9
2016-09-28T01:50:30.872Z,9.94
2016-09-28T01:51:31.143Z,9.87
2016-09-28T01:52:31.142Z,9.93
2016-09-28T01:53:31.086Z,9.86
2016-09-28T01:54:31.033Z,9.93
2016-09-28T01:55:31.002Z,9.83
2016-09-28T01:56:30.658Z,9.81
2016-09-28T01:57:30.629Z,9.81
2016-09-28T01:58:30.892Z,9.81
2016-09-28T01:59:30.548Z,9.81
2016-09-28T02:00:30.816Z,9.86
2016-09-28T02:01:30.174Z,9.74
2016-09-28T02:02:30.739Z,9.79
2016-09-28T02:03:30.399Z,9.79
2016-09-28T02:04:30.669Z,9.69
2016-09-28T02:05:30.627Z,9.76
2016-09-28T02:06:29.990Z,9.79
2016-09-28T02:07:30.560Z,9.79
2016-09-28T02:08:30.518Z,9.74
2016-09-28T02:09:30.485Z,9.79
2016-09-28T02:10:30.456Z,9.76
2016-09-28T02:11:30.414Z,9.74
2016-09-28T02:12:30.379Z,9.84
2016-09-28T02:13:30.348Z,9.79
2016-09-28T02:14:30.304Z,9.78
2016-09-28T02:15:29.964Z,9.75
2016-09-28T02:16:30.227Z,9.75
2016-09-28T02:17:30.205Z,9.76
2016-09-28T02:18:30.160Z,9.76
2016-09-28T02:19:30.124Z,9.66
2016-09-28T02:20:30.086Z,9.76
2016-09-28T02:21:29.744Z,9.65
2016-09-28T02:22:29.709Z,9.71
2016-09-28T02:23:29.973Z,9.72
2016-09-28T02:24:29.936Z,9.79
2016-09-28T02:25:29.902Z,9.78
2016-09-28T02:26:29.871Z,9.74
2016-09-28T02:27:29.832Z,9.61
2016-09-28T02:28:29.793Z,9.72
2016-09-28T02:29:29.453Z,9.66
2016-09-28T02:30:29.117Z,9.65
2016-09-28T02:31:29.690Z,9.71
2016-09-28T02:32:29.651Z,9.66
2016-09-28T02:33:29.613Z,9.66
2016-09-28T02:34:29.575Z,9.66
2016-09-28T02:35:29.540Z,9.65
2016-09-28T02:36:29.207Z,9.65
2016-09-28T02:37:29.460Z,9.66
2016-09-28T02:38:29.433Z,9.68
2016-09-28T02:39:29.391Z,9.64
2016-09-28T02:40:29.050Z,9.69
2016-09-28T02:41:29.319Z,9.65
2016-09-28T02:42:28.982Z,9.64
2016-09-28T02:43:29.247Z,9.66
2016-09-28T02:44:28.910Z,9.64
2016-09-28T02:45:28.870Z,9.66
2016-09-28T02:46:29.142Z,9.57
2016-09-28T02:47:28.805Z,9.57
2016-09-28T02:48:29.064Z,9.51
2016-09-28T02:49:29.029Z,9.54
2016-09-28T02:50:29.014Z,9.54
2016-09-28T02:51:28.957Z,9.54
2016-09-28T02:52:28.921Z,9.56
2016-09-28T02:53:28.882Z,9.53
2016-09-28T02:54:28.874Z,9.51
2016-09-28T02:55:28.813Z,9.48
2016-09-28T02:56:28.776Z,9.43
2016-09-28T02:57:28.738Z,9.53
2016-09-28T02:58:28.401Z,9.43
2016-09-28T02:59:28.356Z,9.46
2016-09-28T03:00:28.328Z,9.4
2016-09-28T03:01:28.589Z,9.43
2016-09-28T03:02:28.253Z,9.38
2016-09-28T03:03:28.520Z,9.4
2016-09-28T03:04:28.174Z,9.38
2016-09-28T03:05:28.440Z,9.43
2016-09-28T03:06:28.410Z,9.35
2016-09-28T03:07:27.767Z,9.31
2016-09-28T03:08:28.050Z,9.4
2016-09-28T03:09:28.002Z,9.29
2016-09-28T03:10:28.260Z,9.39
2016-09-28T03:11:27.619Z,9.43
2016-09-28T03:12:27.897Z,9.36
2016-09-28T03:13:27.853Z,9.35
2016-09-28T03:14:28.121Z,9.39
2016-09-28T03:15:27.471Z,9.43
2016-09-28T03:16:27.748Z,9.42
2016-09-28T03:17:27.707Z,9.42
2016-09-28T03:18:27.676Z,9.46
2016-09-28T03:19:27.635Z,9.54
2016-09-28T03:20:27.608Z,9.54
2016-09-28T03:21:27.571Z,9.56
2016-09-28T03:22:27.825Z,9.61
2016-09-28T03:23:27.793Z,9.66
2016-09-28T03:24:27.144Z,9.72
2016-09-28T03:25:27.416Z,9.83
2016-09-28T03:26:27.373Z,9.84
2016-09-28T03:27:27.335Z,9.86
2016-09-28T03:28:27.299Z,9.89
2016-09-28T03:29:27.268Z,9.94
2016-09-28T03:30:27.527Z,10.04
2016-09-28T03:31:27.502Z,10.07
2016-09-28T03:32:26.854Z,10.12
2016-09-28T03:33:27.131Z,10.17
2016-09-28T03:34:27.086Z,10.23
2016-09-28T03:35:27.346Z,10.25
2016-09-28T03:36:26.717Z,10.32
2016-09-28T03:37:27.280Z,10.33
2016-09-28T03:38:26.941Z,10.38
2016-09-28T03:39:27.204Z,10.51
2016-09-28T03:40:27.168Z,10.56
2016-09-28T03:41:27.130Z,10.59
2016-09-28T03:42:27.096Z,10.7
2016-09-28T03:43:27.060Z,10.7
2016-09-28T03:44:27.024Z,10.68
2016-09-28T03:45:26.690Z,10.73
2016-09-28T03:46:26.950Z,10.81
2016-09-28T03:47:26.608Z,10.79
2016-09-28T03:48:26.883Z,10.92
2016-09-28T03:49:26.841Z,10.79
2016-09-28T03:50:26.806Z,10.86
2016-09-28T03:51:26.466Z,10.86
2016-09-28T03:52:26.440Z,10.94
2016-09-28T03:53:26.398Z,11
2016-09-28T03:54:26.357Z,10.97
2016-09-28T03:55:26.641Z,11
2016-09-28T03:56:26.589Z,11.06
2016-09-28T03:57:26.554Z,11.07
2016-09-28T03:58:26.513Z,11.1
2016-09-28T03:59:26.486Z,11.09
2016-09-28T04:00:26.442Z,11.17
2016-09-28T04:01:26.416Z,11.18
2016-09-28T04:02:26.375Z,11.22
2016-09-28T04:03:26.341Z,11.24
2016-09-28T04:04:26.000Z,11.28
2016-09-28T04:05:26.266Z,11.28
2016-09-28T04:06:26.229Z,11.28
2016-09-28T04:07:25.907Z,11.27
2016-09-28T04:08:26.160Z,11.27
2016-09-28T04:09:25.517Z,11.42
2016-09-28T04:10:26.090Z,11.42
2016-09-28T04:11:25.754Z,11.49
2016-09-28T04:12:26.016Z,11.43
2016-09-28T04:13:25.983Z,11.55
2016-09-28T04:14:25.947Z,11.55
2016-09-28T04:15:25.907Z,11.57
2016-09-28T04:16:25.874Z,11.61
2016-09-28T04:17:25.840Z,11.65
2016-09-28T04:18:25.806Z,11.69
2016-09-28T04:19:25.466Z,11.64
2016-09-28T04:20:25.434Z,11.69
2016-09-28T04:21:25.407Z,11.72
2016-09-28T04:22:25.664Z,11.75
2016-09-28T04:23:25.329Z,11.83
2016-09-28T04:24:25.593Z,11.79
2016-09-28T04:25:25.568Z,11.7
2016-09-28T04:26:25.521Z,11.78
2016-09-28T04:27:25.482Z,11.8
2016-09-28T04:28:25.453Z,11.82
2016-09-28T04:29:25.414Z,11.83
2016-09-28T04:30:25.076Z,11.86
2016-09-28T04:31:25.042Z,11.91
2016-09-28T04:32:25.006Z,11.91
2016-09-28T04:33:24.968Z,11.83
2016-09-28T04:34:25.242Z,11.94
2016-09-28T04:35:25.210Z,11.95
2016-09-28T04:36:24.864Z,11.86
2016-09-28T04:37:25.129Z,11.99
2016-09-28T04:38:25.097Z,12.07
2016-09-28T04:39:25.070Z,12.02
2016-09-28T04:40:24.422Z,12.05
2016-09-28T04:41:24.991Z,11.99
2016-09-28T04:42:24.955Z,12.01
2016-09-28T04:43:24.924Z,12.13
2016-09-28T04:44:24.884Z,12.07
2016-09-28T04:45:24.852Z,12.09
2016-09-28T04:46:24.815Z,12.12
2016-09-28T04:47:24.778Z,12.1
2016-09-28T04:48:24.746Z,12.1
2016-09-28T04:49:24.719Z,12.09
2016-09-28T04:50:24.373Z,12.16
2016-09-28T04:51:24.639Z,12.12
2016-09-28T04:52:24.315Z,12.16
2016-09-28T04:53:24.267Z,12.17
2016-09-28T04:54:24.533Z,12.21
2016-09-28T04:55:24.500Z,12.17
2016-09-28T04:56:24.161Z,12.13
2016-09-28T04:57:24.436Z,12.16
2016-09-28T04:58:24.396Z,12.17
2016-09-28T04:59:24.358Z,12.21
2016-09-28T05:00:24.325Z,12.21
2016-09-28T05:01:23.988Z,12.19
2016-09-28T05:02:24.255Z,12.23
2016-09-28T05:03:24.220Z,12.21
2016-09-28T05:04:24.182Z,12.24
2016-09-28T05:05:23.844Z,12.16
2016-09-28T05:06:23.816Z,12.13
2016-09-28T05:07:24.078Z,12.16
2016-09-28T05:08:23.740Z,12.16
2016-09-28T05:09:24.016Z,12.14
2016-09-28T05:10:23.980Z,12.14
2016-09-28T05:11:23.329Z,12.19
2016-09-28T05:12:23.599Z,12.24
2016-09-28T05:13:23.567Z,12.16
2016-09-28T05:14:23.541Z,12.16
2016-09-28T05:15:23.501Z,12.27
2016-09-28T05:16:23.774Z,12.29
2016-09-28T05:17:23.121Z,12.31
2016-09-28T05:18:23.690Z,12.28
2016-09-28T05:19:23.354Z,12.38
2016-09-28T05:20:23.621Z,12.32
2016-09-28T05:21:23.587Z,12.28
2016-09-28T05:22:23.556Z,12.34
2016-09-28T05:23:23.518Z,12.37
2016-09-28T05:24:23.481Z,12.42
2016-09-28T05:25:23.443Z,12.45
2016-09-28T05:26:23.410Z,12.29
2016-09-28T05:27:22.773Z,12.32
2016-09-28T05:28:23.343Z,12.28
2016-09-28T05:29:23.303Z,12.32
2016-09-28T05:30:22.968Z,12.32
2016-09-28T05:31:23.238Z,12.32
2016-09-28T05:32:22.897Z,12.32
2016-09-28T05:33:22.868Z,12.31
2016-09-28T05:34:23.134Z,12.28
2016-09-28T05:35:23.095Z,12.31
2016-09-28T05:36:23.059Z,12.35
2016-09-28T05:37:22.722Z,12.42
2016-09-28T05:38:22.992Z,12.41
2016-09-28T05:39:22.654Z,12.46
2016-09-28T05:40:22.922Z,12.52
2016-09-28T05:41:22.888Z,12.42
2016-09-28T05:42:22.850Z,12.59
2016-09-28T05:43:22.516Z,12.54
2016-09-28T05:44:22.781Z,12.54
2016-09-28T05:45:22.747Z,12.64
2016-09-28T05:46:22.712Z,12.65
2016-09-28T05:47:22.670Z,12.67
2016-09-28T05:48:22.337Z,12.74
2016-09-28T05:49:22.303Z,12.78
2016-09-28T05:50:22.274Z,12.79
2016-09-28T05:51:22.544Z,12.79
2016-09-28T05:52:22.499Z,12.79
2016-09-28T05:53:22.466Z,12.9
2016-09-28T05:54:22.431Z,12.9
2016-09-28T05:55:22.399Z,12.82
2016-09-28T05:56:22.368Z,12.97
2016-09-28T05:57:22.033Z,13.01
2016-09-28T05:58:22.289Z,13.04
2016-09-28T05:59:22.256Z,12.97
2016-09-28T06:00:21.922Z,13.07
2016-09-28T06:01:22.194Z,13.01
2016-09-28T06:02:22.159Z,12.97
2016-09-28T06:03:21.515Z,13.11
2016-09-28T06:04:21.779Z,13.08
2016-09-28T06:05:22.067Z,13.04
2016-09-28T06:06:22.014Z,13.1
2016-09-28T06:07:21.376Z,13.08
2016-09-28T06:08:21.645Z,13.19
2016-09-28T06:09:21.911Z,13.15
2016-09-28T06:10:21.878Z,13.17
2016-09-28T06:11:21.844Z,13.23
2016-09-28T06:12:21.811Z,13.29
2016-09-28T06:13:21.477Z,13.26
2016-09-28T06:14:21.747Z,13.25
2016-09-28T06:15:21.402Z,13.29
2016-09-28T06:16:21.371Z,13.29
2016-09-28T06:17:21.643Z,13.3
2016-09-28T06:18:21.602Z,13.32
2016-09-28T06:19:21.277Z,13.36
2016-09-28T06:20:21.234Z,13.3
2016-09-28T06:21:21.505Z,13.41
2016-09-28T06:22:20.866Z,13.41
2016-09-28T06:23:21.133Z,13.46
2016-09-28T06:24:21.092Z,13.46
2016-09-28T06:25:21.366Z,13.42
2016-09-28T06:26:21.024Z,13.49
2016-09-28T06:27:20.998Z,13.44
2016-09-28T06:28:21.263Z,13.49
2016-09-28T06:29:20.621Z,13.54
2016-09-28T06:30:21.197Z,13.52
2016-09-28T06:31:21.157Z,13.48
2016-09-28T06:32:21.121Z,13.59
2016-09-28T06:33:21.092Z,13.59
2016-09-28T06:34:20.757Z,13.51
2016-09-28T06:35:21.020Z,13.63
2016-09-28T06:36:20.685Z,13.54
2016-09-28T06:37:20.963Z,13.67
2016-09-28T06:38:20.317Z,13.63
2016-09-28T06:39:20.886Z,13.63
2016-09-28T06:40:20.560Z,13.67
2016-09-28T06:41:20.820Z,13.78
2016-09-28T06:42:20.488Z,13.77
2016-09-28T06:43:20.757Z,13.79
2016-09-28T06:44:20.719Z,13.87
2016-09-28T06:45:20.078Z,13.91
2016-09-28T06:46:20.646Z,13.92
2016-09-28T06:47:20.614Z,13.95
2016-09-28T06:48:20.287Z,14.03
2016-09-28T06:49:20.547Z,13.99
2016-09-28T06:50:20.208Z,14.03
2016-09-28T06:51:20.180Z,14.06
2016-09-28T06:52:20.446Z,14.07
2016-09-28T06:53:19.807Z,14.18
2016-09-28T06:54:20.075Z,14.24
2016-09-28T06:55:20.043Z,14.22
2016-09-28T06:56:20.011Z,14.33
2016-09-28T06:57:20.275Z,14.37
2016-09-28T06:58:19.936Z,14.45
2016-09-28T06:59:19.910Z,14.51
2016-09-28T07:00:20.182Z,14.42
2016-09-28T07:01:20.142Z,14.42
2016-09-28T07:02:20.117Z,14.55
2016-09-28T07:03:19.772Z,14.54
2016-09-28T07:04:19.742Z,14.58
2016-09-28T07:05:20.011Z,14.72
2016-09-28T07:06:19.978Z,14.78
2016-09-28T07:07:19.343Z,14.83
2016-09-28T07:08:19.910Z,14.92
2016-09-28T07:09:19.875Z,14.89
2016-09-28T07:10:19.843Z,14.92
2016-09-28T07:11:19.511Z,15.02
2016-09-28T07:12:19.779Z,15.07
2016-09-28T07:13:19.440Z,15.03
2016-09-28T07:14:19.711Z,15.09
2016-09-28T07:15:19.374Z,15.17
2016-09-28T07:16:19.641Z,15.11
2016-09-28T07:17:19.310Z,15.17
2016-09-28T07:18:19.575Z,15.19
2016-09-28T07:19:19.240Z,15.25
2016-09-28T07:20:19.207Z,15.31
2016-09-28T07:21:19.172Z,15.35
2016-09-28T07:22:19.444Z,15.34
2016-09-28T07:23:19.411Z,15.39
2016-09-28T07:24:19.073Z,15.35
2016-09-28T07:25:18.741Z,15.43
2016-09-28T07:26:19.009Z,15.41
2016-09-28T07:27:18.974Z,15.51
2016-09-28T07:28:19.252Z,15.53
2016-09-28T07:29:18.915Z,15.6
2016-09-28T07:30:18.877Z,15.68
2016-09-28T07:31:18.845Z,15.6
2016-09-28T07:32:18.814Z,15.75
2016-09-28T07:33:18.779Z,15.71
2016-09-28T07:34:18.748Z,15.82
2016-09-28T07:35:19.018Z,15.83
2016-09-28T07:36:18.703Z,15.82
2016-09-28T07:37:18.651Z,15.8
2016-09-28T07:38:18.617Z,15.87
2016-09-28T07:39:18.887Z,15.84
2016-09-28T07:40:18.251Z,15.9
2016-09-28T07:41:18.831Z,15.89
2016-09-28T07:42:18.797Z,16.05
2016-09-28T07:43:18.756Z,16
2016-09-28T07:44:18.428Z,16.07
2016-09-28T07:45:18.695Z,16.08
2016-09-28T07:46:18.664Z,16.09
2016-09-28T07:47:18.627Z,16.12
2016-09-28T07:48:18.594Z,16.12
2016-09-28T07:49:18.261Z,16.17
2016-09-28T07:50:18.533Z,16.27
2016-09-28T07:51:18.194Z,16.23
2016-09-28T07:52:18.185Z,16.27
2016-09-28T07:53:18.444Z,16.25
2016-09-28T07:54:18.098Z,16.24
2016-09-28T07:55:18.071Z,16.33
2016-09-28T07:56:18.336Z,16.34
2016-09-28T07:57:18.005Z,16.39
2016-09-28T07:58:18.281Z,16.45
2016-09-28T07:59:18.242Z,16.33
2016-09-28T08:00:18.219Z,16.33
2016-09-28T08:01:17.569Z,16.31
2016-09-28T08:02:18.148Z,16.23
2016-09-28T08:03:17.511Z,16.27
2016-09-28T08:04:18.083Z,16.27
2016-09-28T08:05:18.056Z,16.3
2016-09-28T08:06:18.020Z,16.2
2016-09-28T08:07:17.987Z,16.21
2016-09-28T08:08:17.950Z,16.31
2016-09-28T08:09:17.620Z,16.31
2016-09-28T08:10:17.886Z,16.35
2016-09-28T08:11:17.555Z,16.28
2016-09-28T08:12:17.828Z,16.33
2016-09-28T08:13:17.190Z,16.34
2016-09-28T08:14:17.759Z,16.42
2016-09-28T08:15:17.731Z,16.48
2016-09-28T08:16:17.697Z,16.52
2016-09-28T08:17:17.358Z,16.6
2016-09-28T08:18:17.639Z,16.7
2016-09-28T08:19:17.303Z,16.76
2016-09-28T08:20:17.571Z,16.83
2016-09-28T08:21:17.537Z,16.96
2016-09-28T08:22:16.901Z,16.82
2016-09-28T08:23:17.173Z,16.86
2016-09-28T08:24:17.444Z,16.94
2016-09-28T08:25:17.410Z,17.01
2016-09-28T08:26:17.379Z,16.88
2016-09-28T08:27:17.355Z,16.83
2016-09-28T08:28:17.009Z,16.83
2016-09-28T08:29:16.977Z,16.67
2016-09-28T08:30:17.251Z,16.58
2016-09-28T08:31:17.223Z,16.45
2016-09-28T08:32:17.200Z,16.42
2016-09-28T08:33:17.159Z,16.42
2016-09-28T08:34:16.848Z,16.38
2016-09-28T08:35:16.787Z,16.38
2016-09-28T08:36:17.064Z,16.43
2016-09-28T08:37:17.028Z,16.57
2016-09-28T08:38:17.004Z,16.76
2016-09-28T08:39:16.662Z,16.97
2016-09-28T08:40:16.633Z,17.01
2016-09-28T08:41:16.899Z,17.15
2016-09-28T08:42:16.573Z,17.19
2016-09-28T08:43:16.838Z,17.33
2016-09-28T08:44:16.804Z,17.52
2016-09-28T08:45:16.175Z,17.72
2016-09-28T08:46:16.151Z,17.99
2016-09-28T08:47:16.407Z,18.11
2016-09-28T08:48:16.381Z,18.45
2016-09-28T08:49:16.652Z,18.72
2016-09-28T08:50:16.313Z,18.9
2016-09-28T08:51:16.589Z,18.92
2016-09-28T08:52:16.253Z,19.1
2016-09-28T08:53:16.529Z,19.81
2016-09-28T08:54:16.194Z,20.48
2016-09-28T08:55:16.168Z,20.77
2016-09-28T08:56:15.830Z,20.99
2016-09-28T08:57:16.106Z,20.94
2016-09-28T08:58:16.379Z,21.12
2016-09-28T08:59:16.045Z,21.06
2016-09-28T09:00:16.016Z,21.04
2016-09-28T09:01:15.984Z,21.1
2016-09-28T09:02:16.266Z,21.34
2016-09-28T09:03:15.924Z,21.69
2016-09-28T09:04:16.198Z,21.98
2016-09-28T09:05:16.169Z,21.92
2016-09-28T09:06:16.140Z,21.9
2016-09-28T09:07:15.805Z,21.8
2016-09-28T09:08:15.782Z,21.82
2016-09-28T09:09:15.449Z,21.99
2016-09-28T09:10:16.024Z,21.99
2016-09-28T09:11:15.997Z,22.03
2016-09-28T09:12:15.670Z,22.54
2016-09-28T09:13:15.938Z,23.1
2016-09-28T09:14:15.910Z,23.98
2016-09-28T09:15:15.586Z,25.06
2016-09-28T09:16:15.570Z,26.33
2016-09-28T09:17:15.828Z,27.57
2016-09-28T09:18:15.499Z,28.78
2016-09-28T09:19:15.479Z,29.97
2016-09-28T09:20:15.748Z,31.13
2016-09-28T09:21:15.725Z,32.14
2016-09-28T09:22:15.706Z,32.78
2016-09-28T09:23:15.678Z,33.32
2016-09-28T09:24:15.351Z,33.76
2016-09-28T09:25:15.635Z,34.17
2016-09-28T09:26:15.604Z,33.88
2016-09-28T09:27:15.579Z,33.04
2016-09-28T09:28:15.259Z,32.26
2016-09-28T09:29:15.532Z,32.18
2016-09-28T09:30:15.508Z,32.4
2016-09-28T09:31:15.491Z,32.37
2016-09-28T09:32:15.462Z,32.62
2016-09-28T09:33:15.142Z,32.69
2016-09-28T09:34:15.421Z,32.38
2016-09-28T09:35:15.397Z,31.88
2016-09-28T09:36:14.767Z,31.34
2016-09-28T09:37:14.747Z,31.21
2016-09-28T09:38:15.329Z,31.61
2016-09-28T09:39:15.310Z,32
2016-09-28T09:40:14.984Z,32.15
2016-09-28T09:41:14.968Z,32.07
2016-09-28T09:42:15.341Z,32.28
2016-09-28T09:43:14.915Z,32.7
2016-09-28T09:44:15.196Z,32.66
2016-09-28T09:45:15.172Z,32.07
2016-09-28T09:46:15.158Z,31.35
2016-09-28T09:47:15.131Z,31.14
2016-09-28T09:48:14.505Z,31.01
2016-09-28T09:49:15.093Z,30.97
2016-09-28T09:50:14.762Z,30.79
2016-09-28T09:51:14.738Z,31.02
2016-09-28T09:52:15.030Z,31.41
2016-09-28T09:53:14.697Z,32.06
2016-09-28T09:54:14.980Z,32.5
2016-09-28T09:55:14.352Z,32.93
2016-09-28T09:56:14.331Z,33.11
2016-09-28T09:57:14.611Z,33.38
2016-09-28T09:58:14.892Z,33.57
2016-09-28T09:59:14.865Z,33.87
2016-09-28T10:00:14.558Z,34.08
2016-09-28T10:01:14.828Z,34.1
2016-09-28T10:02:14.501Z,33.97
2016-09-28T10:03:14.782Z,33.81
2016-09-28T10:04:14.156Z,33.81
2016-09-28T10:05:14.739Z,33.97
2016-09-28T10:06:14.421Z,34.25
2016-09-28T10:07:14.699Z,34.59
2016-09-28T10:08:14.373Z,34.99
2016-09-28T10:09:14.663Z,35.15
2016-09-28T10:10:14.342Z,35.06
2016-09-28T10:11:14.616Z,35.33
2016-09-28T10:12:14.598Z,35.44
2016-09-28T10:13:14.279Z,35.75
2016-09-28T10:14:14.560Z,36.17
2016-09-28T10:15:14.241Z,36.35
2016-09-28T10:16:14.221Z,36.65
2016-09-28T10:17:14.503Z,36.84
2016-09-28T10:18:14.183Z,37.18
2016-09-28T10:19:14.460Z,37.18
2016-09-28T10:20:14.441Z,37.43
2016-09-28T10:21:14.421Z,37.49
2016-09-28T10:22:14.094Z,37.5
2016-09-28T10:23:13.788Z,37.43
2016-09-28T10:24:14.064Z,37.55
2016-09-28T10:25:14.339Z,37.49
2016-09-28T10:26:13.719Z,37.67
2016-09-28T10:27:14.003Z,37.96
2016-09-28T10:28:14.283Z,38.06
2016-09-28T10:29:13.964Z,38.06
2016-09-28T10:30:13.644Z,37.43
2016-09-28T10:31:13.926Z,37.12
2016-09-28T10:32:13.914Z,37.17
2016-09-28T10:33:14.184Z,37.06
2016-09-28T10:34:14.170Z,36.56
2016-09-28T10:35:13.846Z,36.51
2016-09-28T10:36:14.127Z,36.53
2016-09-28T10:37:14.109Z,36.34
2016-09-28T10:38:13.791Z,36.16
2016-09-28T10:39:14.071Z,36.35
2016-09-28T10:40:14.054Z,36.51
2016-09-28T10:41:13.427Z,36.54
2016-09-28T10:42:13.709Z,36.69
2016-09-28T10:43:13.689Z,36.71
2016-09-28T10:44:13.975Z,36.81
2016-09-28T10:45:13.951Z,36.62
2016-09-28T10:46:13.934Z,36.35
2016-09-28T10:47:13.913Z,36.37
2016-09-28T10:48:13.587Z,36.27
2016-09-28T10:49:13.875Z,36.12
2016-09-28T10:50:13.549Z,36.03
2016-09-28T10:51:13.833Z,35.87
2016-09-28T10:52:13.821Z,35.82
2016-09-28T10:53:13.794Z,35.7
2016-09-28T10:54:13.475Z,35.56
2016-09-28T10:55:13.453Z,35.41
2016-09-28T10:56:13.436Z,35.31
2016-09-28T10:57:13.719Z,35.29
2016-09-28T10:58:13.701Z,35.21
2016-09-28T10:59:13.673Z,35.06
2016-09-28T11:00:13.356Z,34.97
2016-09-28T11:01:13.031Z,34.94
2016-09-28T11:02:13.615Z,34.91
2016-09-28T11:03:13.598Z,34.85
2016-09-28T11:04:13.277Z,34.78
2016-09-28T11:05:13.555Z,34.69
2016-09-28T11:06:13.231Z,34.54
2016-09-28T11:07:13.214Z,34.32
2016-09-28T11:08:13.193Z,34.22
2016-09-28T11:09:13.470Z,34.09
2016-09-28T11:10:13.458Z,34.03
2016-09-28T11:11:13.439Z,33.75
2016-09-28T11:12:13.110Z,33.6
2016-09-28T11:13:13.393Z,33.39
2016-09-28T11:14:13.070Z,33.14
2016-09-28T11:15:13.061Z,32.82
2016-09-28T11:16:13.332Z,32.59
2016-09-28T11:17:13.311Z,32.29
2016-09-28T11:18:13.292Z,32.25
2016-09-28T11:19:13.273Z,32.06
2016-09-28T11:20:13.241Z,31.84
2016-09-28T11:21:12.665Z,31.57
2016-09-28T11:22:12.603Z,31.35
2016-09-28T11:23:13.177Z,30.95
2016-09-28T11:24:13.166Z,30.84
2016-09-28T11:25:12.831Z,30.58
2016-09-28T11:26:13.110Z,30.42
2016-09-28T11:27:12.786Z,30.24
2016-09-28T11:28:13.062Z,29.98
2016-09-28T11:29:12.736Z,29.8
2016-09-28T11:30:13.029Z,29.61
2016-09-28T11:31:12.996Z,29.39
2016-09-28T11:32:12.367Z,29.21
2016-09-28T11:33:12.651Z,29
2016-09-28T11:34:12.927Z,28.71
2016-09-28T11:35:12.902Z,28.39
2016-09-28T11:36:12.883Z,28.18
2016-09-28T11:37:12.857Z,28
2016-09-28T11:38:12.847Z,27.77
2016-09-28T11:39:12.808Z,27.57
2016-09-28T11:40:12.482Z,27.44
2016-09-28T11:41:12.458Z,27.29
2016-09-28T11:42:12.734Z,27.12
2016-09-28T11:43:12.716Z,27.04
2016-09-28T11:44:12.384Z,26.8
2016-09-28T11:45:12.665Z,26.67
2016-09-28T11:46:12.335Z,26.52
2016-09-28T11:47:12.610Z,26.43
2016-09-28T11:48:12.593Z,26.18
2016-09-28T11:49:12.564Z,25.99
2016-09-28T11:50:12.234Z,25.99
2016-09-28T11:51:12.511Z,25.9
2016-09-28T11:52:12.490Z,25.88
2016-09-28T11:53:12.169Z,25.65
2016-09-28T11:54:12.138Z,25.57
2016-09-28T11:55:12.414Z,25.6
2016-09-28T11:56:12.079Z,25.38
2016-09-28T11:57:12.358Z,25.33
2016-09-28T11:58:12.329Z,25.2
2016-09-28T11:59:12.304Z,25.09
2016-09-28T12:00:11.976Z,25.15
2016-09-28T12:01:12.251Z,25
2016-09-28T12:02:11.921Z,24.9
2016-09-28T12:03:12.197Z,24.8
2016-09-28T12:04:12.169Z,24.71
2016-09-28T12:05:12.147Z,24.67
2016-09-28T12:06:12.118Z,24.62
2016-09-28T12:07:11.790Z,24.49
2016-09-28T12:08:11.764Z,24.4
2016-09-28T12:09:11.735Z,24.31
2016-09-28T12:10:11.708Z,24.3
2016-09-28T12:11:11.990Z,24.31
2016-09-28T12:12:11.960Z,24.25
2016-09-28T12:13:11.951Z,24.18
2016-09-28T12:14:11.908Z,24.31
2016-09-28T12:15:11.879Z,24.28
2016-09-28T12:16:11.547Z,24.21
2016-09-28T12:17:11.522Z,24.06
2016-09-28T12:18:11.794Z,24.05
2016-09-28T12:19:11.771Z,23.94
2016-09-28T12:20:11.443Z,23.88
2016-09-28T12:21:11.713Z,23.87
2016-09-28T12:22:11.685Z,23.85
2016-09-28T12:23:11.664Z,23.9
2016-09-28T12:24:11.638Z,23.91
2016-09-28T12:25:11.611Z,23.95
2016-09-28T12:26:11.581Z,23.98
2016-09-28T12:27:11.547Z,23.87
2016-09-28T12:28:11.523Z,23.97
2016-09-28T12:29:11.195Z,24.03
2016-09-28T12:30:11.467Z,24
2016-09-28T12:31:11.147Z,23.98
2016-09-28T12:32:11.425Z,23.97
2016-09-28T12:33:10.780Z,23.98
2016-09-28T12:34:11.054Z,23.88
2016-09-28T12:35:10.726Z,23.87
2016-09-28T12:36:11.302Z,23.84
2016-09-28T12:37:10.975Z,23.83
2016-09-28T12:38:11.249Z,23.78
2016-09-28T12:39:11.233Z,23.73
2016-09-28T12:40:10.889Z,23.78
2016-09-28T12:41:11.169Z,23.72
2016-09-28T12:42:10.840Z,23.75
2016-09-28T12:43:11.114Z,23.75
2016-09-28T12:44:10.780Z,23.63
2016-09-28T12:45:11.061Z,23.61
2016-09-28T12:46:10.772Z,23.66
2016-09-28T12:47:10.705Z,23.55
2016-09-28T12:48:10.976Z,23.58
2016-09-28T12:49:10.943Z,23.55
2016-09-28T12:50:10.615Z,23.51
2016-09-28T12:51:10.588Z,23.48
2016-09-28T12:52:10.558Z,23.4
2016-09-28T12:53:10.847Z,23.32
2016-09-28T12:54:10.505Z,23.27
2016-09-28T12:55:10.475Z,23.39
2016-09-28T12:56:10.455Z,23.25
2016-09-28T12:57:10.117Z,23.27
2016-09-28T12:58:10.695Z,23.33
2016-09-28T12:59:10.363Z,23.27